DLH8UL EDDF-EGBB
Flight info
| Callsign | DLH8UL |
|---|---|
| Flight time | 1h 17m |
| Altitude | 38000 |
| Route | OBOKA2E/07C OBOKA Z29 TORNU DCT GALSO Q63 ERING L179 LAM L610 HEMEL |
| Aircraft | A20N/M-SDE2E3FGHIRWXY/LB1 |
Departure
| Time | 2026-04-15 09:56 |
|---|---|
| Airport | Frankfurt Main Airport (EDDF) |
Arrival
| Time | 2026-04-15 11:14 |
|---|---|
| Airport | Birmingham Airport (EGBB) |
| Time | Latitude | Longitude | Altitude | Speed | Heading |
|---|---|---|---|---|---|
| 2026-04-15 09:23 | 50.04610 | 8.57197 | 356 ft | 0 kts | 3° |
| 2026-04-15 09:24 | 50.04615 | 8.57198 | 361 ft | 0 kts | 3° |
| 2026-04-15 09:45 | 50.04609 | 8.57197 | 361 ft | 4 kts | 3° |
| 2026-04-15 09:45 | 50.04582 | 8.57195 | 357 ft | 4 kts | 3° |
| 2026-04-15 09:46 | 50.04555 | 8.57193 | 358 ft | 5 kts | 3° |
| 2026-04-15 09:46 | 50.04537 | 8.57191 | 359 ft | 3 kts | 3° |
| 2026-04-15 09:47 | 50.04546 | 8.57192 | 360 ft | 2 kts | 3° |
| 2026-04-15 09:47 | 50.04549 | 8.57191 | 359 ft | 1 kts | 348° |
| 2026-04-15 09:48 | 50.04545 | 8.57190 | 361 ft | 0 kts | 306° |
| 2026-04-15 09:48 | 50.04542 | 8.57194 | 359 ft | 1 kts | 268° |
| 2026-04-15 09:48 | 50.04541 | 8.57198 | 358 ft | 0 kts | 250° |
| 2026-04-15 09:51 | 50.04541 | 8.57195 | 358 ft | 1 kts | 250° |
| 2026-04-15 09:51 | 50.04534 | 8.57170 | 361 ft | 8 kts | 248° |
| 2026-04-15 09:51 | 50.04493 | 8.56997 | 358 ft | 18 kts | 250° |
| 2026-04-15 09:51 | 50.04465 | 8.56884 | 364 ft | 10 kts | 246° |
| 2026-04-15 09:52 | 50.04397 | 8.56841 | 359 ft | 12 kts | 188° |
| 2026-04-15 09:52 | 50.04305 | 8.56814 | 359 ft | 15 kts | 192° |
| 2026-04-15 09:52 | 50.04233 | 8.56713 | 359 ft | 16 kts | 246° |
| 2026-04-15 09:52 | 50.04185 | 8.56524 | 359 ft | 21 kts | 249° |
| 2026-04-15 09:53 | 50.04130 | 8.56291 | 354 ft | 25 kts | 249° |
| 2026-04-15 09:53 | 50.04072 | 8.56048 | 355 ft | 25 kts | 249° |
| 2026-04-15 09:53 | 50.04009 | 8.55786 | 356 ft | 27 kts | 250° |
| 2026-04-15 09:53 | 50.03942 | 8.55503 | 352 ft | 28 kts | 249° |
| 2026-04-15 09:54 | 50.03871 | 8.55206 | 352 ft | 30 kts | 249° |
| 2026-04-15 09:54 | 50.03798 | 8.54906 | 348 ft | 28 kts | 249° |
| 2026-04-15 09:54 | 50.03738 | 8.54650 | 346 ft | 24 kts | 250° |
| 2026-04-15 09:54 | 50.03679 | 8.54404 | 352 ft | 19 kts | 249° |
| 2026-04-15 09:55 | 50.03612 | 8.54290 | 336 ft | 9 kts | 184° |
| 2026-04-15 09:55 | 50.03574 | 8.54333 | 340 ft | 8 kts | 154° |
| 2026-04-15 09:55 | 50.03517 | 8.54363 | 350 ft | 9 kts | 160° |
| 2026-04-15 09:55 | 50.03489 | 8.54413 | 344 ft | 6 kts | 72° |
| 2026-04-15 09:56 | 50.03547 | 8.54662 | 346 ft | 58 kts | 71° |
| 2026-04-15 09:56 | 50.03761 | 8.55575 | 351 ft | 118 kts | 69° |
| 2026-04-15 09:56 | 50.04471 | 8.58483 | 1118 ft | 148 kts | 70° |
| 2026-04-15 09:57 | 50.04823 | 8.59989 | 1803 ft | 148 kts | 70° |
| 2026-04-15 09:57 | 50.05189 | 8.61510 | 2336 ft | 156 kts | 65° |
| 2026-04-15 09:57 | 50.05894 | 8.62881 | 2743 ft | 176 kts | 38° |
| 2026-04-15 09:57 | 50.07086 | 8.63634 | 3210 ft | 198 kts | 8° |
| 2026-04-15 09:58 | 50.08537 | 8.63574 | 3775 ft | 218 kts | 358° |
| 2026-04-15 09:58 | 50.10080 | 8.63426 | 4611 ft | 225 kts | 358° |
| 2026-04-15 09:58 | 50.11686 | 8.63288 | 5381 ft | 241 kts | 358° |
| 2026-04-15 09:58 | 50.13445 | 8.63157 | 5941 ft | 266 kts | 358° |
| 2026-04-15 09:59 | 50.15344 | 8.63030 | 6744 ft | 278 kts | 357° |
| 2026-04-15 09:59 | 50.17251 | 8.62585 | 7745 ft | 280 kts | 338° |
| 2026-04-15 09:59 | 50.18869 | 8.60934 | 8755 ft | 281 kts | 311° |
| 2026-04-15 09:59 | 50.20049 | 8.58483 | 9763 ft | 286 kts | 302° |
| 2026-04-15 10:00 | 50.21113 | 8.55824 | 10667 ft | 293 kts | 301° |
| 2026-04-15 10:00 | 50.22215 | 8.53067 | 11125 ft | 315 kts | 301° |
| 2026-04-15 10:00 | 50.23461 | 8.50094 | 11581 ft | 336 kts | 303° |
| 2026-04-15 10:00 | 50.24787 | 8.47057 | 12449 ft | 340 kts | 303° |
| 2026-04-15 10:01 | 50.26144 | 8.44013 | 13407 ft | 343 kts | 304° |
| 2026-04-15 10:01 | 50.27521 | 8.40942 | 14309 ft | 346 kts | 304° |
| 2026-04-15 10:01 | 50.28910 | 8.37843 | 15087 ft | 351 kts | 304° |
| 2026-04-15 10:01 | 50.30311 | 8.34711 | 15848 ft | 356 kts | 304° |
| 2026-04-15 10:02 | 50.31699 | 8.31603 | 16593 ft | 360 kts | 304° |
| 2026-04-15 10:02 | 50.33141 | 8.28368 | 17387 ft | 364 kts | 304° |
| 2026-04-15 10:02 | 50.34598 | 8.25101 | 18141 ft | 368 kts | 304° |
| 2026-04-15 10:02 | 50.36052 | 8.21831 | 18831 ft | 373 kts | 304° |
| 2026-04-15 10:03 | 50.37538 | 8.18488 | 19523 ft | 376 kts | 304° |
| 2026-04-15 10:03 | 50.39037 | 8.15106 | 20175 ft | 380 kts | 304° |
| 2026-04-15 10:03 | 50.40548 | 8.11694 | 20826 ft | 383 kts | 304° |
| 2026-04-15 10:03 | 50.42073 | 8.08242 | 21464 ft | 387 kts | 304° |
| 2026-04-15 10:04 | 50.43614 | 8.04752 | 22102 ft | 391 kts | 304° |
| 2026-04-15 10:04 | 50.45167 | 8.01227 | 22728 ft | 395 kts | 304° |
| 2026-04-15 10:04 | 50.46735 | 7.97665 | 23356 ft | 399 kts | 304° |
| 2026-04-15 10:04 | 50.48319 | 7.94064 | 23947 ft | 403 kts | 304° |
| 2026-04-15 10:05 | 50.49913 | 7.90433 | 24516 ft | 404 kts | 304° |
| 2026-04-15 10:05 | 50.51507 | 7.86795 | 25157 ft | 404 kts | 305° |
| 2026-04-15 10:05 | 50.53099 | 7.83158 | 25715 ft | 405 kts | 305° |
| 2026-04-15 10:05 | 50.54680 | 7.79542 | 26220 ft | 408 kts | 305° |
| 2026-04-15 10:06 | 50.56291 | 7.75854 | 26757 ft | 410 kts | 305° |
| 2026-04-15 10:06 | 50.57906 | 7.72149 | 27274 ft | 412 kts | 305° |
| 2026-04-15 10:06 | 50.59529 | 7.68421 | 27768 ft | 414 kts | 305° |
| 2026-04-15 10:06 | 50.61158 | 7.64673 | 28247 ft | 416 kts | 305° |
| 2026-04-15 10:07 | 50.62791 | 7.60912 | 28709 ft | 418 kts | 305° |
| 2026-04-15 10:07 | 50.64437 | 7.57115 | 29194 ft | 419 kts | 305° |
| 2026-04-15 10:07 | 50.66085 | 7.53309 | 29633 ft | 421 kts | 305° |
| 2026-04-15 10:07 | 50.67745 | 7.49469 | 30052 ft | 424 kts | 305° |
| 2026-04-15 10:08 | 50.69398 | 7.45638 | 30397 ft | 427 kts | 305° |
| 2026-04-15 10:08 | 50.71072 | 7.41755 | 30732 ft | 429 kts | 305° |
| 2026-04-15 10:08 | 50.72729 | 7.37904 | 31128 ft | 430 kts | 305° |
| 2026-04-15 10:08 | 50.74370 | 7.33955 | 31536 ft | 431 kts | 302° |
| 2026-04-15 10:09 | 50.75791 | 7.29791 | 32012 ft | 430 kts | 298° |
| 2026-04-15 10:09 | 50.77148 | 7.25592 | 32526 ft | 428 kts | 298° |
| 2026-04-15 10:09 | 50.78509 | 7.21431 | 33037 ft | 425 kts | 299° |
| 2026-04-15 10:09 | 50.79865 | 7.17287 | 33527 ft | 423 kts | 299° |
| 2026-04-15 10:10 | 50.81211 | 7.13161 | 34004 ft | 421 kts | 299° |
| 2026-04-15 10:10 | 50.82547 | 7.09050 | 34434 ft | 419 kts | 299° |
| 2026-04-15 10:10 | 50.83874 | 7.04953 | 34786 ft | 418 kts | 299° |
| 2026-04-15 10:10 | 50.85200 | 7.00858 | 35085 ft | 418 kts | 298° |
| 2026-04-15 10:11 | 50.86523 | 6.96759 | 35419 ft | 418 kts | 298° |
| 2026-04-15 10:11 | 50.87841 | 6.92665 | 35742 ft | 417 kts | 298° |
| 2026-04-15 10:11 | 50.89151 | 6.88591 | 36072 ft | 416 kts | 298° |
| 2026-04-15 10:11 | 50.90446 | 6.84560 | 36393 ft | 415 kts | 298° |
| 2026-04-15 10:12 | 50.91751 | 6.80492 | 36699 ft | 414 kts | 298° |
| 2026-04-15 10:12 | 50.93051 | 6.76431 | 36996 ft | 413 kts | 298° |
| 2026-04-15 10:12 | 50.94348 | 6.72375 | 37288 ft | 412 kts | 298° |
| 2026-04-15 10:12 | 50.95641 | 6.68323 | 37576 ft | 411 kts | 299° |
| 2026-04-15 10:13 | 50.96931 | 6.64276 | 37858 ft | 411 kts | 299° |
| 2026-04-15 10:13 | 50.98216 | 6.60236 | 38114 ft | 410 kts | 298° |
| 2026-04-15 10:13 | 50.99499 | 6.56202 | 38222 ft | 410 kts | 298° |
| 2026-04-15 10:14 | 51.02051 | 6.48147 | 38226 ft | 408 kts | 298° |
| 2026-04-15 10:14 | 51.04571 | 6.40166 | 38232 ft | 408 kts | 298° |
| 2026-04-15 10:15 | 51.07110 | 6.32098 | 38222 ft | 408 kts | 298° |
| 2026-04-15 10:15 | 51.09625 | 6.24080 | 38208 ft | 408 kts | 298° |
| 2026-04-15 10:16 | 51.12154 | 6.15993 | 38209 ft | 408 kts | 297° |
| 2026-04-15 10:16 | 51.14018 | 6.09093 | 38198 ft | 409 kts | 290° |
| 2026-04-15 10:17 | 51.15569 | 6.00360 | 38197 ft | 410 kts | 286° |
| 2026-04-15 10:17 | 51.17240 | 5.90138 | 38203 ft | 410 kts | 286° |
| 2026-04-15 10:18 | 51.18768 | 5.81376 | 38197 ft | 410 kts | 291° |
| 2026-04-15 10:18 | 51.20346 | 5.74258 | 38199 ft | 410 kts | 290° |
| 2026-04-15 10:19 | 51.22226 | 5.65675 | 38197 ft | 410 kts | 290° |
| 2026-04-15 10:19 | 51.24098 | 5.57088 | 38185 ft | 410 kts | 290° |
| 2026-04-15 10:20 | 51.25963 | 5.48493 | 38201 ft | 410 kts | 289° |
| 2026-04-15 10:20 | 51.27823 | 5.39891 | 38201 ft | 410 kts | 289° |
| 2026-04-15 10:21 | 51.29677 | 5.31280 | 38194 ft | 410 kts | 289° |
| 2026-04-15 10:21 | 51.31524 | 5.22668 | 38196 ft | 409 kts | 289° |
| 2026-04-15 10:22 | 51.33349 | 5.14120 | 38207 ft | 409 kts | 289° |
| 2026-04-15 10:22 | 51.35178 | 5.05514 | 38206 ft | 409 kts | 289° |
| 2026-04-15 10:23 | 51.37000 | 4.96902 | 38191 ft | 408 kts | 289° |
| 2026-04-15 10:23 | 51.38815 | 4.88293 | 38185 ft | 408 kts | 288° |
| 2026-04-15 10:24 | 51.40610 | 4.79737 | 38182 ft | 408 kts | 288° |
| 2026-04-15 10:24 | 51.42413 | 4.71119 | 38186 ft | 408 kts | 288° |
| 2026-04-15 10:25 | 51.44206 | 4.62499 | 38184 ft | 408 kts | 288° |
| 2026-04-15 10:25 | 51.45992 | 4.53879 | 38179 ft | 407 kts | 288° |
| 2026-04-15 10:26 | 51.47770 | 4.45257 | 38185 ft | 407 kts | 288° |
| 2026-04-15 10:26 | 51.49544 | 4.36617 | 38201 ft | 407 kts | 288° |
| 2026-04-15 10:27 | 51.51299 | 4.28040 | 38183 ft | 407 kts | 288° |
| 2026-04-15 10:27 | 51.53059 | 4.19396 | 38178 ft | 407 kts | 287° |
| 2026-04-15 10:28 | 51.54810 | 4.10755 | 38190 ft | 407 kts | 287° |
| 2026-04-15 10:28 | 51.56555 | 4.02110 | 38176 ft | 406 kts | 287° |
| 2026-04-15 10:29 | 51.58281 | 3.93523 | 38158 ft | 406 kts | 287° |
| 2026-04-15 10:29 | 51.60009 | 3.84884 | 38144 ft | 406 kts | 287° |
| 2026-04-15 10:30 | 51.61735 | 3.76232 | 38132 ft | 406 kts | 286° |
| 2026-04-15 10:30 | 51.63450 | 3.67574 | 38134 ft | 406 kts | 286° |
| 2026-04-15 10:31 | 51.65161 | 3.58901 | 38127 ft | 407 kts | 286° |
| 2026-04-15 10:31 | 51.66858 | 3.50268 | 38130 ft | 407 kts | 286° |
| 2026-04-15 10:32 | 51.68562 | 3.41562 | 38127 ft | 408 kts | 286° |
| 2026-04-15 10:32 | 51.70262 | 3.32840 | 38126 ft | 408 kts | 285° |
| 2026-04-15 10:33 | 51.71892 | 3.24126 | 38131 ft | 408 kts | 281° |
| 2026-04-15 10:33 | 51.72654 | 3.15093 | 38133 ft | 407 kts | 271° |
| 2026-04-15 10:34 | 51.72308 | 3.06010 | 38133 ft | 406 kts | 262° |
| 2026-04-15 10:34 | 51.71525 | 2.96986 | 38136 ft | 407 kts | 262° |
| 2026-04-15 10:35 | 51.70750 | 2.87946 | 38137 ft | 406 kts | 261° |
| 2026-04-15 10:35 | 51.69965 | 2.78999 | 38130 ft | 402 kts | 261° |
| 2026-04-15 10:36 | 51.69173 | 2.70115 | 38121 ft | 403 kts | 261° |
| 2026-04-15 10:36 | 51.68371 | 2.61170 | 38123 ft | 403 kts | 261° |
| 2026-04-15 10:37 | 51.67567 | 2.52230 | 38125 ft | 403 kts | 261° |
| 2026-04-15 10:37 | 51.66755 | 2.43291 | 38119 ft | 403 kts | 261° |
| 2026-04-15 10:38 | 51.65936 | 2.34351 | 38117 ft | 404 kts | 260° |
| 2026-04-15 10:38 | 51.65112 | 2.25473 | 38110 ft | 404 kts | 259° |
| 2026-04-15 10:39 | 51.64278 | 2.16555 | 38110 ft | 404 kts | 259° |
| 2026-04-15 10:39 | 51.63438 | 2.07624 | 38105 ft | 404 kts | 259° |
| 2026-04-15 10:40 | 51.62608 | 1.98689 | 38109 ft | 404 kts | 259° |
| 2026-04-15 10:40 | 51.61780 | 1.89756 | 38103 ft | 402 kts | 259° |
| 2026-04-15 10:41 | 51.60963 | 1.80973 | 38102 ft | 399 kts | 259° |
| 2026-04-15 10:41 | 51.60123 | 1.72130 | 38099 ft | 400 kts | 258° |
| 2026-04-15 10:42 | 51.59363 | 1.63270 | 38099 ft | 401 kts | 263° |
| 2026-04-15 10:42 | 51.59361 | 1.54258 | 38099 ft | 405 kts | 270° |
| 2026-04-15 10:43 | 51.59767 | 1.45225 | 38094 ft | 405 kts | 270° |
| 2026-04-15 10:43 | 51.60148 | 1.36235 | 38090 ft | 406 kts | 269° |
| 2026-04-15 10:44 | 51.60520 | 1.27179 | 38079 ft | 406 kts | 269° |
| 2026-04-15 10:44 | 51.60892 | 1.18119 | 38082 ft | 406 kts | 269° |
| 2026-04-15 10:45 | 51.61261 | 1.09050 | 38075 ft | 406 kts | 269° |
| 2026-04-15 10:45 | 51.61619 | 1.00040 | 38077 ft | 406 kts | 269° |
| 2026-04-15 10:46 | 51.61975 | 0.90962 | 38075 ft | 407 kts | 268° |
| 2026-04-15 10:46 | 51.62311 | 0.81857 | 38065 ft | 408 kts | 268° |
| 2026-04-15 10:47 | 51.62636 | 0.72749 | 38078 ft | 408 kts | 268° |
| 2026-04-15 10:47 | 51.62986 | 0.63625 | 38082 ft | 408 kts | 268° |
| 2026-04-15 10:48 | 51.63301 | 0.54564 | 38078 ft | 408 kts | 268° |
| 2026-04-15 10:48 | 51.63609 | 0.45433 | 38064 ft | 410 kts | 267° |
| 2026-04-15 10:49 | 51.63922 | 0.36279 | 38053 ft | 410 kts | 267° |
| 2026-04-15 10:49 | 51.64226 | 0.27121 | 38039 ft | 410 kts | 267° |
| 2026-04-15 10:50 | 51.64676 | 0.17952 | 38040 ft | 415 kts | 274° |
| 2026-04-15 10:50 | 51.66341 | 0.08995 | 38040 ft | 428 kts | 287° |
| 2026-04-15 10:51 | 51.68804 | 0.00325 | 37943 ft | 427 kts | 287° |
| 2026-04-15 10:51 | 51.70034 | -0.04042 | 37418 ft | 431 kts | 287° |
| 2026-04-15 10:51 | 51.71560 | -0.08306 | 36529 ft | 450 kts | 299° |
| 2026-04-15 10:51 | 51.73693 | -0.12132 | 35559 ft | 467 kts | 309° |
| 2026-04-15 10:52 | 51.76144 | -0.15673 | 34546 ft | 477 kts | 311° |
| 2026-04-15 10:52 | 51.78687 | -0.19174 | 33544 ft | 483 kts | 312° |
| 2026-04-15 10:52 | 51.81250 | -0.22701 | 32594 ft | 485 kts | 312° |
| 2026-04-15 10:52 | 51.83781 | -0.26228 | 31573 ft | 488 kts | 311° |
| 2026-04-15 10:53 | 51.86343 | -0.29841 | 30614 ft | 489 kts | 311° |
| 2026-04-15 10:53 | 51.88905 | -0.33480 | 29422 ft | 490 kts | 311° |
| 2026-04-15 10:53 | 51.91453 | -0.37114 | 28185 ft | 485 kts | 312° |
| 2026-04-15 10:53 | 51.93958 | -0.40691 | 27428 ft | 471 kts | 312° |
| 2026-04-15 10:54 | 51.96361 | -0.44119 | 27144 ft | 448 kts | 311° |
| 2026-04-15 10:54 | 51.98643 | -0.47379 | 26913 ft | 426 kts | 311° |
| 2026-04-15 10:54 | 52.00811 | -0.50488 | 26700 ft | 406 kts | 310° |
| 2026-04-15 10:54 | 52.02876 | -0.53461 | 26375 ft | 390 kts | 310° |
| 2026-04-15 10:55 | 52.04863 | -0.56338 | 25705 ft | 386 kts | 310° |
| 2026-04-15 10:55 | 52.06854 | -0.59233 | 25010 ft | 384 kts | 310° |
| 2026-04-15 10:55 | 52.08837 | -0.62114 | 24368 ft | 380 kts | 310° |
| 2026-04-15 10:55 | 52.10801 | -0.64964 | 23749 ft | 377 kts | 311° |
| 2026-04-15 10:56 | 52.12747 | -0.67787 | 23070 ft | 373 kts | 311° |
| 2026-04-15 10:56 | 52.14668 | -0.70572 | 22565 ft | 366 kts | 311° |
| 2026-04-15 10:56 | 52.16567 | -0.73330 | 22075 ft | 366 kts | 311° |
| 2026-04-15 10:56 | 52.18458 | -0.76080 | 21581 ft | 363 kts | 311° |
| 2026-04-15 10:57 | 52.20331 | -0.78805 | 20979 ft | 359 kts | 311° |
| 2026-04-15 10:57 | 52.23875 | -0.84348 | 19738 ft | 342 kts | 298° |
| 2026-04-15 10:57 | 52.24982 | -0.87613 | 19114 ft | 326 kts | 282° |
| 2026-04-15 10:58 | 52.25613 | -0.91100 | 18505 ft | 322 kts | 282° |
| 2026-04-15 10:58 | 52.26713 | -0.94340 | 17847 ft | 328 kts | 294° |
| 2026-04-15 10:58 | 52.27981 | -0.97429 | 17138 ft | 333 kts | 306° |
| 2026-04-15 10:58 | 52.29849 | -0.99750 | 16519 ft | 344 kts | 325° |
| 2026-04-15 10:59 | 52.31975 | -1.01581 | 15839 ft | 345 kts | 326° |
| 2026-04-15 10:59 | 52.34090 | -1.03387 | 15238 ft | 342 kts | 326° |
| 2026-04-15 10:59 | 52.36177 | -1.05179 | 14812 ft | 333 kts | 326° |
| 2026-04-15 10:59 | 52.38179 | -1.06894 | 14609 ft | 318 kts | 326° |
| 2026-04-15 11:00 | 52.40094 | -1.08529 | 14184 ft | 313 kts | 327° |
| 2026-04-15 11:00 | 52.41972 | -1.10279 | 13658 ft | 308 kts | 321° |
| 2026-04-15 11:00 | 52.43760 | -1.12181 | 13085 ft | 305 kts | 320° |
| 2026-04-15 11:00 | 52.45521 | -1.14078 | 12575 ft | 301 kts | 320° |
| 2026-04-15 11:01 | 52.47258 | -1.15962 | 12058 ft | 298 kts | 320° |
| 2026-04-15 11:01 | 52.48973 | -1.17836 | 11573 ft | 294 kts | 319° |
| 2026-04-15 11:01 | 52.50539 | -1.19905 | 11067 ft | 286 kts | 311° |
| 2026-04-15 11:01 | 52.51984 | -1.22113 | 10600 ft | 283 kts | 310° |
| 2026-04-15 11:02 | 52.53412 | -1.24323 | 10085 ft | 281 kts | 310° |
| 2026-04-15 11:02 | 52.54824 | -1.26521 | 9590 ft | 278 kts | 310° |
| 2026-04-15 11:02 | 52.56219 | -1.28702 | 9053 ft | 276 kts | 310° |
| 2026-04-15 11:02 | 52.57562 | -1.30925 | 8529 ft | 271 kts | 303° |
| 2026-04-15 11:03 | 52.58715 | -1.33343 | 8011 ft | 267 kts | 300° |
| 2026-04-15 11:03 | 52.59838 | -1.35763 | 7533 ft | 265 kts | 300° |
| 2026-04-15 11:03 | 52.60952 | -1.38153 | 7050 ft | 263 kts | 300° |
| 2026-04-15 11:03 | 52.62066 | -1.40529 | 6580 ft | 261 kts | 300° |
| 2026-04-15 11:04 | 52.63175 | -1.42883 | 6111 ft | 259 kts | 300° |
| 2026-04-15 11:04 | 52.64165 | -1.45312 | 5640 ft | 252 kts | 291° |
| 2026-04-15 11:04 | 52.64976 | -1.47782 | 5200 ft | 249 kts | 290° |
| 2026-04-15 11:04 | 52.65807 | -1.50331 | 4760 ft | 247 kts | 290° |
| 2026-04-15 11:05 | 52.66615 | -1.52818 | 4376 ft | 247 kts | 284° |
| 2026-04-15 11:05 | 52.66887 | -1.55499 | 4149 ft | 232 kts | 256° |
| 2026-04-15 11:05 | 52.66756 | -1.58123 | 3902 ft | 230 kts | 259° |
| 2026-04-15 11:05 | 52.66711 | -1.60721 | 3741 ft | 223 kts | 260° |
| 2026-04-15 11:06 | 52.66669 | -1.63264 | 3623 ft | 227 kts | 260° |
| 2026-04-15 11:06 | 52.66484 | -1.65793 | 3500 ft | 219 kts | 251° |
| 2026-04-15 11:06 | 52.66161 | -1.68245 | 3376 ft | 219 kts | 250° |
| 2026-04-15 11:06 | 52.65834 | -1.70709 | 3254 ft | 221 kts | 250° |
| 2026-04-15 11:07 | 52.65455 | -1.73147 | 3179 ft | 217 kts | 245° |
| 2026-04-15 11:07 | 52.64906 | -1.75443 | 3035 ft | 214 kts | 240° |
| 2026-04-15 11:07 | 52.64320 | -1.77637 | 2897 ft | 205 kts | 240° |
| 2026-04-15 11:07 | 52.63735 | -1.79770 | 2780 ft | 207 kts | 237° |
| 2026-04-15 11:08 | 52.62967 | -1.81736 | 2641 ft | 201 kts | 230° |
| 2026-04-15 11:08 | 52.62162 | -1.83568 | 2520 ft | 193 kts | 230° |
| 2026-04-15 11:08 | 52.61423 | -1.85269 | 2488 ft | 177 kts | 227° |
| 2026-04-15 11:08 | 52.60628 | -1.86677 | 2484 ft | 163 kts | 220° |
| 2026-04-15 11:09 | 52.59765 | -1.87948 | 2460 ft | 164 kts | 210° |
| 2026-04-15 11:09 | 52.58696 | -1.88506 | 2472 ft | 166 kts | 182° |
| 2026-04-15 11:09 | 52.57544 | -1.88086 | 2475 ft | 169 kts | 162° |
| 2026-04-15 11:09 | 52.56509 | -1.87159 | 2525 ft | 172 kts | 155° |
| 2026-04-15 11:10 | 52.55575 | -1.86125 | 2489 ft | 151 kts | 153° |
| 2026-04-15 11:10 | 52.54768 | -1.85221 | 2373 ft | 131 kts | 155° |
| 2026-04-15 11:10 | 52.54047 | -1.84423 | 2212 ft | 125 kts | 156° |
| 2026-04-15 11:10 | 52.53322 | -1.83622 | 2058 ft | 124 kts | 155° |
| 2026-04-15 11:11 | 52.52630 | -1.82848 | 1905 ft | 118 kts | 155° |
| 2026-04-15 11:11 | 52.51960 | -1.82104 | 1753 ft | 116 kts | 156° |
| 2026-04-15 11:11 | 52.51286 | -1.81359 | 1569 ft | 118 kts | 155° |
| 2026-04-15 11:11 | 52.50612 | -1.80604 | 1396 ft | 116 kts | 156° |
| 2026-04-15 11:12 | 52.49945 | -1.79872 | 1245 ft | 116 kts | 158° |
| 2026-04-15 11:12 | 52.49281 | -1.79126 | 1097 ft | 114 kts | 156° |
| 2026-04-15 11:12 | 52.48606 | -1.78387 | 935 ft | 117 kts | 153° |
| 2026-04-15 11:12 | 52.47931 | -1.77622 | 776 ft | 116 kts | 150° |
| 2026-04-15 11:13 | 52.47286 | -1.76909 | 624 ft | 110 kts | 150° |
| 2026-04-15 11:13 | 52.46618 | -1.76171 | 432 ft | 119 kts | 148° |
| 2026-04-15 11:13 | 52.45951 | -1.75435 | 317 ft | 114 kts | 150° |
| 2026-04-15 11:13 | 52.45443 | -1.74871 | 323 ft | 59 kts | 147° |
| 2026-04-15 11:14 | 52.45268 | -1.74675 | 326 ft | 4 kts | 146° |
| 2026-04-15 11:14 | 52.45115 | -1.74506 | 329 ft | 39 kts | 146° |
| 2026-04-15 11:14 | 52.44945 | -1.74277 | 326 ft | 15 kts | 99° |
| 2026-04-15 11:14 | 52.44963 | -1.74129 | 328 ft | 9 kts | 73° |
| 2026-04-15 11:15 | 52.44986 | -1.73996 | 323 ft | 11 kts | 76° |
| 2026-04-15 11:15 | 52.45021 | -1.73874 | 323 ft | 14 kts | 46° |
| 2026-04-15 11:15 | 52.45061 | -1.73772 | 322 ft | 5 kts | 56° |
| 2026-04-15 11:15 | 52.45095 | -1.73720 | 322 ft | 9 kts | 38° |
| 2026-04-15 11:16 | 52.45127 | -1.73657 | 323 ft | 8 kts | 54° |
| 2026-04-15 11:16 | 52.45159 | -1.73634 | 323 ft | 1 kts | 322° |
| 2026-04-15 11:16 | 52.45176 | -1.73663 | 321 ft | 5 kts | 320° |
| 2026-04-15 11:16 | 52.45190 | -1.73679 | 323 ft | 2 kts | 324° |
| 2026-04-15 11:17 | 52.45205 | -1.73696 | 323 ft | 3 kts | 326° |
| 2026-04-15 11:17 | 52.45208 | -1.73700 | 323 ft | 0 kts | 326° |